Time;durP1;ratioP1;P1;durP2;ratioP2;P2;SDS_P1;SDS_P2;PMS_P1;PMS_P2;Temp;Humidity;BMP_temperature;BMP_pressure;BME280_temperature;BME280_humidity;BME280_pressure;Samples;Min_cycle;Max_cycle;Signal;HPM_P1;HPM_P2
2023/05/14 00:00:42;;;;;;;9.13;6.10;;;;;;;;;;5030594;28;20486;-72
2023/05/14 00:03:07;;;;;;;12.20;7.05;;;;;;;;;;5030828;28;20026;-71
2023/05/14 00:05:32;;;;;;;10.00;6.03;;;;;;;;;;5030463;28;20453;-71
2023/05/14 00:07:57;;;;;;;9.40;6.37;;;;;;;;;;5030682;28;20351;-72
2023/05/14 00:10:23;;;;;;;9.33;6.00;;;;;;;;;;5029625;28;20276;-72
2023/05/14 00:12:49;;;;;;;9.95;6.60;;;;;;;;;;5030167;28;20291;-72
2023/05/14 00:15:14;;;;;;;10.43;7.35;;;;;;;;;;5030144;28;20021;-72
2023/05/14 00:17:41;;;;;;;11.73;6.30;;;;;;;;;;5030588;28;20388;-71
2023/05/14 00:20:06;;;;;;;17.67;6.57;;;;;;;;;;5030184;28;20276;-71
2023/05/14 00:22:32;;;;;;;8.35;5.47;;;;;;;;;;5030305;28;20024;-72
2023/05/14 00:24:57;;;;;;;10.18;5.65;;;;;;;;;;5029899;28;20109;-72
2023/05/14 00:27:22;;;;;;;13.03;6.27;;;;;;;;;;5029713;28;20096;-72
2023/05/14 00:29:47;;;;;;;12.00;6.30;;;;;;;;;;5030163;28;20256;-71
2023/05/14 00:32:12;;;;;;;14.87;6.33;;;;;;;;;;5030326;28;20276;-71
2023/05/14 00:34:37;;;;;;;12.67;6.57;;;;;;;;;;5030294;28;20252;-72
2023/05/14 00:37:03;;;;;;;11.27;6.93;;;;;;;;;;5029990;28;20299;-72
2023/05/14 00:39:28;;;;;;;10.55;5.78;;;;;;;;;;5028994;28;20283;-71
2023/05/14 00:41:53;;;;;;;12.87;6.50;;;;;;;;;;5030031;28;20030;-71
2023/05/14 00:44:18;;;;;;;9.27;5.60;;;;;;;;;;5030081;28;20504;-71
2023/05/14 00:46:44;;;;;;;17.27;6.75;;;;;;;;;;5032928;28;20343;-71
2023/05/14 00:49:09;;;;;;;8.85;6.00;;;;;;;;;;5034336;28;20115;-71
2023/05/14 00:51:34;;;;;;;12.57;5.78;;;;;;;;;;5034240;28;20025;-71
2023/05/14 00:53:59;;;;;;;9.98;5.90;;;;;;;;;;5034190;28;20498;-72
2023/05/14 00:56:25;;;;;;;12.23;6.03;;;;;;;;;;5030648;28;20037;-71
2023/05/14 00:58:50;;;;;;;10.93;5.75;;;;;;;;;;5033616;28;20025;-71
2023/05/14 01:01:16;;;;;;;9.57;5.93;;;;;;;;;;5033944;28;20100;-71
2023/05/14 01:03:42;;;;;;;13.43;6.25;;;;;;;;;;5033794;28;20268;-72
2023/05/14 01:06:11;;;;;;;20.75;8.07;;;;;;;;;;5033726;28;20100;-71
2023/05/14 01:08:45;;;;;;;10.45;5.95;;;;;;;;;;5031992;28;20014;-72
2023/05/14 01:11:18;;;;;;;9.60;6.78;;;;;;;;;;5031124;28;20061;-72
2023/05/14 01:13:49;;;;;;;9.82;6.63;;;;;;;;;;5033660;28;20017;-71
2023/05/14 01:16:17;;;;;;;15.43;7.38;;;;;;;;;;5033157;28;20025;-71
2023/05/14 01:18:42;;;;;;;9.50;6.03;;;;;;;;;;5033532;28;20023;-71
2023/05/14 01:21:18;;;;;;;10.35;6.15;;;;;;;;;;5033686;28;20025;-72
2023/05/14 01:23:44;;;;;;;14.68;7.53;;;;;;;;;;5032171;28;20040;-71
2023/05/14 01:26:09;;;;;;;11.25;6.53;;;;;;;;;;5029521;28;20532;-71
2023/05/14 01:28:35;;;;;;;11.02;6.20;;;;;;;;;;5032655;28;20101;-72
2023/05/14 01:31:03;;;;;;;12.77;6.60;;;;;;;;;;5033158;28;20029;-72
2023/05/14 01:33:30;;;;;;;11.70;6.85;;;;;;;;;;5030977;28;20657;-72
2023/05/14 01:35:57;;;;;;;10.43;6.53;;;;;;;;;;5032799;28;20032;-71
2023/05/14 01:38:23;;;;;;;10.30;6.35;;;;;;;;;;5029577;28;20018;-71
2023/05/14 01:40:49;;;;;;;16.58;6.78;;;;;;;;;;5032937;28;20036;-72
2023/05/14 01:43:14;;;;;;;13.15;6.75;;;;;;;;;;5032769;28;20117;-72
2023/05/14 01:45:40;;;;;;;10.30;6.13;;;;;;;;;;5033201;28;20104;-72
2023/05/14 01:48:05;;;;;;;12.52;6.97;;;;;;;;;;5033047;28;20029;-72
2023/05/14 01:50:30;;;;;;;12.50;5.97;;;;;;;;;;5032212;28;20042;-71
2023/05/14 01:52:55;;;;;;;14.10;6.83;;;;;;;;;;5032884;28;20043;-71
2023/05/14 01:55:22;;;;;;;13.83;6.67;;;;;;;;;;5032750;28;20260;-72
2023/05/14 01:57:47;;;;;;;9.52;6.13;;;;;;;;;;5033029;28;20603;-71
2023/05/14 02:00:13;;;;;;;12.30;6.57;;;;;;;;;;5033132;28;20033;-71
2023/05/14 02:02:38;;;;;;;16.23;7.03;;;;;;;;;;5032952;28;20339;-71
2023/05/14 02:05:03;;;;;;;10.63;6.53;;;;;;;;;;5031998;28;20475;-71
2023/05/14 02:07:28;;;;;;;10.55;6.72;;;;;;;;;;5032561;28;20267;-71
2023/05/14 02:09:54;;;;;;;9.65;6.88;;;;;;;;;;5032695;28;20040;-72
2023/05/14 02:12:19;;;;;;;16.33;6.75;;;;;;;;;;5032482;28;20025;-73
2023/05/14 02:14:44;;;;;;;10.02;6.80;;;;;;;;;;5032642;28;20029;-71
2023/05/14 02:17:09;;;;;;;9.68;6.60;;;;;;;;;;5032498;28;20017;-72
2023/05/14 02:19:35;;;;;;;13.57;6.80;;;;;;;;;;5031409;28;20478;-72
2023/05/14 02:22:00;;;;;;;16.48;6.93;;;;;;;;;;5032392;28;20284;-71
2023/05/14 02:24:25;;;;;;;13.48;6.75;;;;;;;;;;5032333;28;20104;-72
2023/05/14 02:26:50;;;;;;;12.07;7.00;;;;;;;;;;5031025;28;20071;-72
2023/05/14 02:29:16;;;;;;;11.23;6.13;;;;;;;;;;5032157;28;20022;-71
2023/05/14 02:31:41;;;;;;;18.57;6.83;;;;;;;;;;5032243;28;20257;-71
2023/05/14 02:34:06;;;;;;;9.67;6.37;;;;;;;;;;5030103;28;20786;-72
2023/05/14 02:36:31;;;;;;;11.32;6.80;;;;;;;;;;5031849;28;20252;-72
2023/05/14 02:38:57;;;;;;;17.77;7.53;;;;;;;;;;5032048;28;20018;-71
2023/05/14 02:41:22;;;;;;;9.93;6.55;;;;;;;;;;5032237;28;20060;-71
2023/05/14 02:43:48;;;;;;;11.67;6.80;;;;;;;;;;5032074;28;20116;-72
2023/05/14 02:46:13;;;;;;;16.63;6.57;;;;;;;;;;5031932;28;20244;-71
2023/05/14 02:48:38;;;;;;;13.75;6.47;;;;;;;;;;5029785;28;20091;-71
2023/05/14 02:51:03;;;;;;;13.07;6.22;;;;;;;;;;5031731;28;20033;-71
2023/05/14 02:53:28;;;;;;;11.57;7.43;;;;;;;;;;5031740;28;20390;-72
2023/05/14 02:55:54;;;;;;;13.63;6.87;;;;;;;;;;5031873;28;20037;-71
2023/05/14 02:58:19;;;;;;;12.13;6.22;;;;;;;;;;5031958;28;20263;-71
2023/05/14 03:00:44;;;;;;;10.27;7.13;;;;;;;;;;5031918;28;20022;-72
2023/05/14 03:03:09;;;;;;;13.87;7.00;;;;;;;;;;5028924;28;20016;-71
2023/05/14 03:05:34;;;;;;;11.55;6.65;;;;;;;;;;5031504;28;20335;-72
2023/05/14 03:08:00;;;;;;;10.00;7.10;;;;;;;;;;5031357;28;20041;-71
2023/05/14 03:10:25;;;;;;;13.47;6.73;;;;;;;;;;5031095;28;20031;-72
2023/05/14 03:12:50;;;;;;;13.52;6.80;;;;;;;;;;5031486;28;20784;-71
2023/05/14 03:15:15;;;;;;;14.10;6.82;;;;;;;;;;5031319;28;20022;-72
2023/05/14 03:17:41;;;;;;;10.88;6.82;;;;;;;;;;5030287;28;20080;-72
2023/05/14 03:20:06;;;;;;;14.90;8.33;;;;;;;;;;5030477;28;20025;-72
2023/05/14 03:22:31;;;;;;;10.10;6.53;;;;;;;;;;5030703;28;20312;-71
2023/05/14 03:24:56;;;;;;;13.80;6.93;;;;;;;;;;5029699;28;20021;-71
2023/05/14 03:27:22;;;;;;;13.55;6.88;;;;;;;;;;5030565;28;20024;-71
2023/05/14 03:29:47;;;;;;;10.30;7.30;;;;;;;;;;5030729;28;20049;-71
2023/05/14 03:32:12;;;;;;;10.17;6.53;;;;;;;;;;5030382;28;20326;-71
2023/05/14 03:34:37;;;;;;;15.70;7.40;;;;;;;;;;5030768;28;20256;-71
2023/05/14 03:37:02;;;;;;;12.18;7.05;;;;;;;;;;5030874;28;20348;-71
2023/05/14 03:39:28;;;;;;;12.35;7.07;;;;;;;;;;5030510;28;20074;-71
2023/05/14 03:41:53;;;;;;;11.05;7.03;;;;;;;;;;5031012;28;20156;-71
2023/05/14 03:44:18;;;;;;;22.27;7.18;;;;;;;;;;5031026;28;20088;-71
2023/05/14 03:46:43;;;;;;;15.50;7.45;;;;;;;;;;5029942;28;20041;-72
2023/05/14 03:49:08;;;;;;;13.50;7.05;;;;;;;;;;5030382;28;20075;-72
2023/05/14 03:51:33;;;;;;;14.90;7.70;;;;;;;;;;5030482;28;20482;-72
2023/05/14 03:53:59;;;;;;;10.35;7.50;;;;;;;;;;5029926;28;20347;-71
2023/05/14 03:56:24;;;;;;;11.83;7.90;;;;;;;;;;5029251;28;20014;-72
2023/05/14 03:58:50;;;;;;;19.15;8.50;;;;;;;;;;5030682;28;20784;-71
2023/05/14 04:01:15;;;;;;;14.63;7.80;;;;;;;;;;5030711;28;20437;-71
2023/05/14 04:03:40;;;;;;;13.77;8.07;;;;;;;;;;5030785;28;20017;-71
2023/05/14 04:06:05;;;;;;;12.33;6.90;;;;;;;;;;5030576;28;20656;-71
2023/05/14 04:08:31;;;;;;;20.92;7.47;;;;;;;;;;5030468;28;20298;-71
2023/05/14 04:10:56;;;;;;;12.38;7.70;;;;;;;;;;5029599;28;20052;-71
2023/05/14 04:13:21;;;;;;;10.87;7.03;;;;;;;;;;5029987;28;20383;-72
2023/05/14 04:15:46;;;;;;;10.00;7.03;;;;;;;;;;5030171;28;20267;-71
2023/05/14 04:18:11;;;;;;;11.95;7.60;;;;;;;;;;5030313;28;20737;-72
2023/05/14 04:20:36;;;;;;;11.30;7.10;;;;;;;;;;5029601;28;20504;-71
2023/05/14 04:23:02;;;;;;;15.27;7.60;;;;;;;;;;5030425;28;20252;-72
2023/05/14 04:25:27;;;;;;;13.13;8.73;;;;;;;;;;5029146;28;20017;-71
2023/05/14 04:27:52;;;;;;;12.20;7.78;;;;;;;;;;5030078;28;20017;-71
2023/05/14 04:30:17;;;;;;;11.95;7.55;;;;;;;;;;5029912;28;20080;-71
2023/05/14 04:32:43;;;;;;;10.82;6.97;;;;;;;;;;5030145;28;20067;-71
2023/05/14 04:35:09;;;;;;;17.35;7.40;;;;;;;;;;5030332;28;20470;-71
2023/05/14 04:37:34;;;;;;;11.05;7.25;;;;;;;;;;5030190;28;20026;-71
2023/05/14 04:39:59;;;;;;;21.40;6.70;;;;;;;;;;5028176;28;20017;-71
2023/05/14 04:42:24;;;;;;;19.45;8.13;;;;;;;;;;5029798;28;20013;-71
2023/05/14 04:44:50;;;;;;;15.37;7.80;;;;;;;;;;5030168;28;20447;-71
2023/05/14 04:47:15;;;;;;;11.47;6.83;;;;;;;;;;5029924;28;20259;-71
2023/05/14 04:49:41;;;;;;;9.75;6.50;;;;;;;;;;5029981;28;20333;-71
2023/05/14 04:52:06;;;;;;;16.77;7.40;;;;;;;;;;5030116;28;20037;-72
2023/05/14 04:54:31;;;;;;;12.88;7.95;;;;;;;;;;5028974;28;20790;-71
2023/05/14 04:57:01;;;;;;;12.10;6.70;;;;;;;;;;5029854;28;20029;-71
2023/05/14 04:59:27;;;;;;;11.90;7.15;;;;;;;;;;5029180;28;20306;-71
2023/05/14 05:01:52;;;;;;;12.57;7.53;;;;;;;;;;5029850;28;20053;-71
2023/05/14 05:04:17;;;;;;;12.33;6.77;;;;;;;;;;5029099;28;20280;-71
2023/05/14 05:06:42;;;;;;;13.77;7.45;;;;;;;;;;5029445;28;20259;-71
2023/05/14 05:09:08;;;;;;;12.67;7.27;;;;;;;;;;5029896;28;20112;-71
2023/05/14 05:11:33;;;;;;;16.42;7.10;;;;;;;;;;5029683;28;20321;-71
2023/05/14 05:13:59;;;;;;;17.47;7.20;;;;;;;;;;5027664;28;20170;-71
2023/05/14 05:16:24;;;;;;;11.77;7.18;;;;;;;;;;5029146;28;20260;-71
2023/05/14 05:18:49;;;;;;;11.25;7.05;;;;;;;;;;5029592;28;20037;-71
2023/05/14 05:21:14;;;;;;;13.68;7.10;;;;;;;;;;5029655;28;20425;-71
2023/05/14 05:23:40;;;;;;;16.35;6.45;;;;;;;;;;5029644;28;20036;-71
2023/05/14 05:26:05;;;;;;;9.83;6.67;;;;;;;;;;5029610;28;20014;-71
2023/05/14 05:28:30;;;;;;;10.30;6.57;;;;;;;;;;5028348;28;20736;-71
2023/05/14 05:30:55;;;;;;;13.00;6.60;;;;;;;;;;5029608;28;20240;-71
2023/05/14 05:33:20;;;;;;;13.20;7.22;;;;;;;;;;5032833;28;20252;-72
2023/05/14 05:35:47;;;;;;;10.43;6.35;;;;;;;;;;5033407;28;20017;-71
2023/05/14 05:38:13;;;;;;;13.43;6.30;;;;;;;;;;5033222;28;20021;-71
2023/05/14 05:40:39;;;;;;;12.60;7.32;;;;;;;;;;5033599;28;20021;-71
2023/05/14 05:43:04;;;;;;;14.55;7.90;;;;;;;;;;5032450;28;20016;-72
2023/05/14 05:45:29;;;;;;;12.05;4.63;;;;;;;;;;5032287;28;20026;-71
2023/05/14 05:47:54;;;;;;;14.60;7.60;;;;;;;;;;5035820;28;20641;-71
2023/05/14 05:50:20;;;;;;;13.47;7.83;;;;;;;;;;5032412;28;20494;-72
2023/05/14 05:52:45;;;;;;;17.30;8.23;;;;;;;;;;5033065;28;20283;-71
2023/05/14 05:55:10;;;;;;;17.20;7.50;;;;;;;;;;5033058;28;20260;-72
2023/05/14 05:57:35;;;;;;;16.27;8.55;;;;;;;;;;5033234;28;20052;-71
2023/05/14 06:00:08;;;;;;;17.67;7.88;;;;;;;;;;5031908;28;20434;-71
2023/05/14 06:02:34;;;;;;;16.90;8.52;;;;;;;;;;5032487;28;20104;-71
2023/05/14 06:04:59;;;;;;;16.15;9.50;;;;;;;;;;5032981;28;20093;-71
2023/05/14 06:07:24;;;;;;;19.45;9.55;;;;;;;;;;5032521;28;20024;-72
2023/05/14 06:09:50;;;;;;;18.80;8.90;;;;;;;;;;5031566;28;20019;-71
2023/05/14 06:12:15;;;;;;;14.47;8.10;;;;;;;;;;5030082;28;20025;-71
2023/05/14 06:14:40;;;;;;;13.30;8.85;;;;;;;;;;5032485;28;20628;-71
2023/05/14 06:17:06;;;;;;;18.07;9.20;;;;;;;;;;5032426;28;20021;-71
2023/05/14 06:19:31;;;;;;;14.68;7.15;;;;;;;;;;5032241;28;20256;-71
2023/05/14 06:21:56;;;;;;;14.33;8.40;;;;;;;;;;5032458;28;20029;-71
2023/05/14 06:24:21;;;;;;;16.17;8.73;;;;;;;;;;5030758;28;20295;-71
2023/05/14 06:26:48;;;;;;;18.30;9.43;;;;;;;;;;5031918;28;20272;-71
2023/05/14 06:29:13;;;;;;;14.50;8.23;;;;;;;;;;5032230;28;20283;-71
2023/05/14 06:31:38;;;;;;;14.57;8.93;;;;;;;;;;5032279;28;20738;-71
2023/05/14 06:34:03;;;;;;;8.73;5.40;;;;;;;;;;5032250;28;20256;-71
2023/05/14 06:36:28;;;;;;;12.18;7.65;;;;;;;;;;5032178;28;20267;-70
2023/05/14 06:38:54;;;;;;;17.33;8.33;;;;;;;;;;5030674;28;20029;-72
2023/05/14 06:41:20;;;;;;;12.70;6.97;;;;;;;;;;5032133;28;20351;-71
2023/05/14 06:43:45;;;;;;;13.80;7.55;;;;;;;;;;5030875;28;20022;-71
2023/05/14 06:46:10;;;;;;;17.33;10.70;;;;;;;;;;5032156;28;20517;-71
2023/05/14 06:48:35;;;;;;;13.10;5.53;;;;;;;;;;5031875;28;20291;-71
2023/05/14 06:51:02;;;;;;;16.37;7.33;;;;;;;;;;5032004;28;20295;-70
2023/05/14 06:53:27;;;;;;;16.42;10.00;;;;;;;;;;5031377;28;20280;-71
2023/05/14 06:55:52;;;;;;;20.17;10.20;;;;;;;;;;5030254;28;20030;-71
2023/05/14 06:58:17;;;;;;;19.63;9.63;;;;;;;;;;5033186;28;20278;-70
2023/05/14 07:00:42;;;;;;;13.33;8.57;;;;;;;;;;5031280;28;20284;-71
2023/05/14 07:03:08;;;;;;;14.38;8.25;;;;;;;;;;5028727;28;20319;-71
2023/05/14 07:05:33;;;;;;;12.57;8.50;;;;;;;;;;5030591;28;20501;-71
2023/05/14 07:07:58;;;;;;;12.53;7.53;;;;;;;;;;5031679;28;20466;-71
2023/05/14 07:10:23;;;;;;;15.05;9.55;;;;;;;;;;5031374;28;20258;-72
2023/05/14 07:12:49;;;;;;;14.38;7.40;;;;;;;;;;5031489;28;20091;-71
2023/05/14 07:15:14;;;;;;;15.68;8.82;;;;;;;;;;5031365;28;20025;-71
2023/05/14 07:17:40;;;;;;;14.95;8.43;;;;;;;;;;5031005;28;20025;-69
2023/05/14 07:20:05;;;;;;;13.00;6.82;;;;;;;;;;5031023;28;20021;-70
2023/05/14 07:22:30;;;;;;;15.00;7.57;;;;;;;;;;5031233;28;20206;-70
2023/05/14 07:24:55;;;;;;;13.03;6.87;;;;;;;;;;5031276;28;20047;-70
2023/05/14 07:27:21;;;;;;;9.63;5.60;;;;;;;;;;5030989;28;20729;-70
2023/05/14 07:29:46;;;;;;;11.27;6.63;;;;;;;;;;5031171;28;20032;-68
2023/05/14 07:32:11;;;;;;;14.97;6.60;;;;;;;;;;5029674;28;20482;-68
2023/05/14 07:34:36;;;;;;;11.77;6.60;;;;;;;;;;5030743;28;20032;-68
2023/05/14 07:37:01;;;;;;;10.80;5.63;;;;;;;;;;5030976;28;20248;-69
2023/05/14 07:39:27;;;;;;;7.80;5.90;;;;;;;;;;5030801;28;20029;-68
2023/05/14 07:41:53;;;;;;;10.20;4.93;;;;;;;;;;5030788;28;20033;-68
2023/05/14 07:44:18;;;;;;;8.45;5.70;;;;;;;;;;5030804;28;20019;-68
2023/05/14 07:46:44;;;;;;;9.85;5.13;;;;;;;;;;5027576;28;20021;-68
2023/05/14 07:49:09;;;;;;;8.97;4.93;;;;;;;;;;5031014;28;20009;-68
2023/05/14 07:51:34;;;;;;;7.43;4.87;;;;;;;;;;5031038;28;20317;-69
2023/05/14 07:53:59;;;;;;;6.55;3.90;;;;;;;;;;5030865;28;20615;-68
2023/05/14 07:56:25;;;;;;;6.38;4.75;;;;;;;;;;5030480;28;20028;-69
2023/05/14 07:58:50;;;;;;;6.97;5.18;;;;;;;;;;5030700;28;20032;-68
2023/05/14 08:01:15;;;;;;;14.98;5.63;;;;;;;;;;5026386;28;20104;-68
2023/05/14 08:03:40;;;;;;;9.60;4.38;;;;;;;;;;5029548;28;20037;-68
2023/05/14 08:06:06;;;;;;;11.63;4.80;;;;;;;;;;5022376;28;20092;-68
2023/05/14 08:08:31;;;;;;;10.50;4.20;;;;;;;;;;5030370;28;20534;-67
2023/05/14 08:10:56;;;;;;;6.40;4.47;;;;;;;;;;5030440;28;20843;-68
2023/05/14 08:13:21;;;;;;;7.43;5.13;;;;;;;;;;5031052;28;20018;-68
2023/05/14 08:15:47;;;;;;;12.67;5.80;;;;;;;;;;5030182;28;20021;-68
2023/05/14 08:18:12;;;;;;;10.95;5.05;;;;;;;;;;5030178;28;20528;-67
2023/05/14 08:20:37;;;;;;;6.77;5.10;;;;;;;;;;5030285;28;20108;-69
2023/05/14 08:23:02;;;;;;;11.57;4.90;;;;;;;;;;5030313;28;20017;-68
2023/05/14 08:25:27;;;;;;;7.80;5.60;;;;;;;;;;5030061;28;20315;-68
2023/05/14 08:27:53;;;;;;;8.47;5.80;;;;;;;;;;5029140;28;20296;-68
2023/05/14 08:30:18;;;;;;;6.03;4.55;;;;;;;;;;5029884;28;20024;-67
2023/05/14 08:32:43;;;;;;;9.80;5.38;;;;;;;;;;5030061;28;20025;-68
2023/05/14 08:35:09;;;;;;;8.83;5.87;;;;;;;;;;5030081;28;20049;-67
2023/05/14 08:37:34;;;;;;;7.60;5.20;;;;;;;;;;5030162;28;20698;-68
2023/05/14 08:39:59;;;;;;;7.85;5.35;;;;;;;;;;5030059;28;20067;-67
2023/05/14 08:42:25;;;;;;;9.80;5.70;;;;;;;;;;5028737;28;20079;-67
2023/05/14 08:45:03;;;;;;;12.43;5.30;;;;;;;;;;5030193;28;20252;-67
2023/05/14 08:47:29;;;;;;;9.07;5.53;;;;;;;;;;5030005;28;20072;-69
2023/05/14 08:50:03;;;;;;;7.47;5.30;;;;;;;;;;5030198;28;20478;-68
2023/05/14 08:52:28;;;;;;;8.38;5.18;;;;;;;;;;5029890;28;20037;-67
2023/05/14 08:54:54;;;;;;;11.68;5.68;;;;;;;;;;5023497;28;20034;-67
2023/05/14 08:57:23;;;;;;;6.32;4.72;;;;;;;;;;5024792;28;20045;-68
2023/05/14 08:59:48;;;;;;;11.25;4.57;;;;;;;;;;5024622;28;20018;-70
2023/05/14 09:02:15;;;;;;;9.13;4.73;;;;;;;;;;5023171;28;20032;-70
2023/05/14 09:04:41;;;;;;;9.25;5.07;;;;;;;;;;5027649;28;20603;-71
2023/05/14 09:07:06;;;;;;;8.15;5.38;;;;;;;;;;5025599;28;20017;-68
2023/05/14 09:09:31;;;;;;;9.73;4.00;;;;;;;;;;5033621;28;20029;-68
2023/05/14 09:11:57;;;;;;;12.98;4.05;;;;;;;;;;5033379;28;20326;-68
2023/05/14 09:14:22;;;;;;;6.53;3.70;;;;;;;;;;5023490;28;20116;-69
2023/05/14 09:16:48;;;;;;;6.63;4.00;;;;;;;;;;5022429;28;20742;-70
2023/05/14 09:19:14;;;;;;;6.75;4.18;;;;;;;;;;5033402;28;20024;-68
2023/05/14 09:21:40;;;;;;;7.10;4.20;;;;;;;;;;5033530;28;20055;-68
2023/05/14 09:24:05;;;;;;;6.22;4.95;;;;;;;;;;5030651;28;20463;-68
2023/05/14 09:26:31;;;;;;;9.90;5.68;;;;;;;;;;5035797;28;20029;-68
2023/05/14 09:29:00;;;;;;;7.13;5.40;;;;;;;;;;5032959;28;20083;-68
2023/05/14 09:31:25;;;;;;;8.32;4.95;;;;;;;;;;5029652;28;20108;-67
2023/05/14 09:33:51;;;;;;;7.25;5.10;;;;;;;;;;5032685;28;20676;-67
2023/05/14 09:36:17;;;;;;;7.95;4.85;;;;;;;;;;5032553;28;20071;-68
2023/05/14 09:38:42;;;;;;;10.00;5.93;;;;;;;;;;5026959;28;20029;-69
2023/05/14 09:41:07;;;;;;;10.73;5.87;;;;;;;;;;5033384;28;20021;-69
2023/05/14 09:43:32;;;;;;;7.47;4.97;;;;;;;;;;5027113;28;20030;-69
2023/05/14 09:45:57;;;;;;;10.77;6.27;;;;;;;;;;5032210;28;20390;-69
2023/05/14 09:48:23;;;;;;;12.23;6.53;;;;;;;;;;5027572;28;20044;-68
2023/05/14 09:50:48;;;;;;;8.75;5.13;;;;;;;;;;5032297;28;20017;-70
2023/05/14 09:53:14;;;;;;;12.37;5.20;;;;;;;;;;5032187;28;20079;-67
2023/05/14 09:55:39;;;;;;;11.50;6.40;;;;;;;;;;5032113;28;20264;-68
2023/05/14 09:58:04;;;;;;;8.75;5.43;;;;;;;;;;5032084;28;20017;-69
2023/05/14 10:00:33;;;;;;;9.77;5.40;;;;;;;;;;5031854;28;20495;-68
2023/05/14 10:03:00;;;;;;;8.85;6.30;;;;;;;;;;5031143;28;20014;-68
2023/05/14 10:05:26;;;;;;;7.57;5.97;;;;;;;;;;5028885;28;20230;-69
2023/05/14 10:07:53;;;;;;;8.50;6.25;;;;;;;;;;5025720;28;20022;-69
2023/05/14 10:10:18;;;;;;;8.02;5.32;;;;;;;;;;5032389;28;20478;-68
2023/05/14 10:13:04;;;;;;;9.07;5.20;;;;;;;;;;5031797;28;20093;-68
2023/05/14 10:15:32;;;;;;;9.00;6.28;;;;;;;;;;5025057;28;20494;-68
2023/05/14 10:18:02;;;;;;;11.75;6.18;;;;;;;;;;5030791;28;20032;-68
2023/05/14 10:20:27;;;;;;;11.20;5.80;;;;;;;;;;5031555;28;20067;-68
2023/05/14 10:22:52;;;;;;;10.23;6.13;;;;;;;;;;5031973;28;20029;-68
2023/05/14 10:25:18;;;;;;;7.57;5.18;;;;;;;;;;5035019;28;20502;-68
2023/05/14 10:27:43;;;;;;;8.23;5.35;;;;;;;;;;5032026;28;20109;-68
2023/05/14 10:30:10;;;;;;;7.88;5.43;;;;;;;;;;5032049;28;20356;-68
2023/05/14 10:32:36;;;;;;;12.00;5.43;;;;;;;;;;5031645;28;20593;-69
2023/05/14 10:35:13;;;;;;;8.63;5.10;;;;;;;;;;5030700;28;20246;-68
2023/05/14 10:37:38;;;;;;;11.82;5.95;;;;;;;;;;5031671;28;20029;-68
2023/05/14 10:40:05;;;;;;;12.82;7.25;;;;;;;;;;5031485;28;20049;-69
2023/05/14 10:42:34;;;;;;;10.02;5.97;;;;;;;;;;5031437;28;20021;-69
2023/05/14 10:45:01;;;;;;;8.18;5.13;;;;;;;;;;5032202;28;20120;-68
2023/05/14 10:47:30;;;;;;;10.63;6.05;;;;;;;;;;5031180;28;20017;-68
2023/05/14 10:49:56;;;;;;;10.47;4.80;;;;;;;;;;5031600;28;20482;-68
2023/05/14 10:52:21;;;;;;;7.45;5.05;;;;;;;;;;5024393;28;20017;-69
2023/05/14 10:54:51;;;;;;;7.78;5.13;;;;;;;;;;5018747;28;20036;-69
2023/05/14 10:57:18;;;;;;;6.65;4.68;;;;;;;;;;5019603;28;20021;-69
2023/05/14 10:59:43;;;;;;;7.55;5.35;;;;;;;;;;5030591;28;20079;-69
2023/05/14 11:02:19;;;;;;;10.75;5.53;;;;;;;;;;5031103;28;20026;-69
2023/05/14 11:04:51;;;;;;;9.73;5.50;;;;;;;;;;5029963;28;20017;-69
2023/05/14 11:07:17;;;;;;;16.05;5.70;;;;;;;;;;5027101;28;20018;-70
2023/05/14 11:09:42;;;;;;;11.35;6.13;;;;;;;;;;5030883;28;20033;-70
2023/05/14 11:12:07;;;;;;;7.45;4.90;;;;;;;;;;5025514;28;20022;-70
2023/05/14 11:14:32;;;;;;;7.57;4.85;;;;;;;;;;5021690;28;20078;-70
2023/05/14 11:16:58;;;;;;;9.37;4.77;;;;;;;;;;5030655;28;20109;-70
2023/05/14 11:19:23;;;;;;;10.67;5.00;;;;;;;;;;5030273;28;20343;-70
2023/05/14 11:21:48;;;;;;;7.53;5.03;;;;;;;;;;5031077;28;20276;-70
2023/05/14 11:24:13;;;;;;;8.80;5.73;;;;;;;;;;5030805;28;20626;-70
2023/05/14 11:26:39;;;;;;;11.20;5.30;;;;;;;;;;5022420;28;20375;-72
2023/05/14 11:29:04;;;;;;;7.93;4.22;;;;;;;;;;5024867;28;20049;-70
2023/05/14 11:31:29;;;;;;;6.53;5.43;;;;;;;;;;5027534;28;20497;-70
2023/05/14 11:33:55;;;;;;;10.38;5.63;;;;;;;;;;5026159;28;20785;-70
2023/05/14 11:36:20;;;;;;;8.55;5.40;;;;;;;;;;5028621;28;20541;-70
2023/05/14 11:38:50;;;;;;;11.32;5.82;;;;;;;;;;5031845;28;20104;-70
2023/05/14 11:41:16;;;;;;;;;;;;;;;;;;5026990;28;20047;-70
2023/05/14 11:43:41;;;;;;;15.32;6.05;;;;;;;;;;5031113;28;21114;-70
2023/05/14 11:46:06;;;;;;;11.40;5.68;;;;;;;;;;5022764;28;20053;-70
2023/05/14 11:48:32;;;;;;;8.10;5.35;;;;;;;;;;5023987;28;20108;-70
2023/05/14 11:50:57;;;;;;;9.63;5.75;;;;;;;;;;5024663;28;20025;-70
2023/05/14 11:53:26;;;;;;;8.50;5.27;;;;;;;;;;5028895;28;20021;-70
2023/05/14 11:55:56;;;;;;;6.95;4.50;;;;;;;;;;5028176;28;20059;-70
2023/05/14 11:58:21;;;;;;;10.00;5.20;;;;;;;;;;5027673;28;20025;-70
2023/05/14 12:00:50;;;;;;;10.85;4.55;;;;;;;;;;5029953;28;20420;-70
2023/05/14 12:03:21;;;;;;;4.82;3.25;;;;;;;;;;5031296;28;20025;-70
2023/05/14 12:05:59;;;;;;;6.18;3.47;;;;;;;;;;5028837;28;20009;-71
2023/05/14 12:08:25;;;;;;;5.88;3.15;;;;;;;;;;5022424;28;20028;-69
2023/05/14 12:10:54;;;;;;;4.35;2.78;;;;;;;;;;5030255;28;20025;-69
2023/05/14 12:13:19;;;;;;;4.03;3.00;;;;;;;;;;5029897;28;20018;-69
2023/05/14 12:15:46;;;;;;;5.53;3.50;;;;;;;;;;5028258;28;20025;-69
2023/05/14 12:18:11;;;;;;;4.65;2.60;;;;;;;;;;5027441;28;20481;-69
2023/05/14 12:20:36;;;;;;;8.27;2.67;;;;;;;;;;5028335;28;20029;-69
2023/05/14 12:23:01;;;;;;;7.50;2.30;;;;;;;;;;5026936;28;20017;-69
2023/05/14 12:25:27;;;;;;;4.53;2.30;;;;;;;;;;5025853;28;21817;-70
2023/05/14 12:27:53;;;;;;;8.70;2.88;;;;;;;;;;5029809;28;20804;-69
2023/05/14 12:30:18;;;;;;;3.87;2.60;;;;;;;;;;5027469;28;20060;-69
2023/05/14 12:32:43;;;;;;;3.80;2.47;;;;;;;;;;5027310;28;20021;-69
2023/05/14 12:35:08;;;;;;;5.10;2.37;;;;;;;;;;5026622;28;20033;-71
2023/05/14 12:37:36;;;;;;;2.47;1.77;;;;;;;;;;5031350;28;20048;-70
2023/05/14 12:40:02;;;;;;;4.55;2.17;;;;;;;;;;5027946;28;20021;-70
2023/05/14 12:42:27;;;;;;;16.52;2.30;;;;;;;;;;5031684;28;20083;-70
2023/05/14 12:44:52;;;;;;;3.37;2.13;;;;;;;;;;5030610;28;20017;-70
2023/05/14 12:47:18;;;;;;;6.80;2.00;;;;;;;;;;5034183;28;20030;-70
2023/05/14 12:49:43;;;;;;;4.07;2.10;;;;;;;;;;5034326;28;20566;-70
2023/05/14 12:52:08;;;;;;;3.00;2.30;;;;;;;;;;5033937;28;20037;-70
2023/05/14 12:54:33;;;;;;;4.13;1.90;;;;;;;;;;5031119;28;20260;-70
2023/05/14 12:56:58;;;;;;;5.00;2.33;;;;;;;;;;5032251;28;20335;-70
2023/05/14 12:59:24;;;;;;;2.30;1.70;;;;;;;;;;5033866;28;20036;-71
2023/05/14 13:01:49;;;;;;;4.78;3.13;;;;;;;;;;5033725;28;20311;-71
2023/05/14 13:04:14;;;;;;;2.15;1.52;;;;;;;;;;5030288;28;20020;-71
2023/05/14 13:06:39;;;;;;;3.70;2.17;;;;;;;;;;5036774;28;20071;-71
2023/05/14 13:09:05;;;;;;;3.30;1.58;;;;;;;;;;5030473;28;20264;-71
2023/05/14 13:11:31;;;;;;;5.75;2.30;;;;;;;;;;5033977;28;20048;-71
2023/05/14 13:13:57;;;;;;;4.30;2.00;;;;;;;;;;5032501;28;20104;-71
2023/05/14 13:16:22;;;;;;;5.25;2.22;;;;;;;;;;5035415;28;20037;-71
2023/05/14 13:18:47;;;;;;;4.30;1.90;;;;;;;;;;5033077;28;20029;-71
2023/05/14 13:21:12;;;;;;;6.37;1.90;;;;;;;;;;5031961;28;20104;-71
2023/05/14 13:23:38;;;;;;;4.87;2.07;;;;;;;;;;5032922;28;20029;-71
2023/05/14 13:26:03;;;;;;;3.25;2.28;;;;;;;;;;5031736;28;20256;-71
2023/05/14 13:28:28;;;;;;;3.37;2.10;;;;;;;;;;5030413;28;20537;-71
2023/05/14 13:31:09;;;;;;;4.55;2.03;;;;;;;;;;5033908;28;20569;-71
2023/05/14 13:33:35;;;;;;;8.05;2.38;;;;;;;;;;5038870;28;20523;-71
2023/05/14 13:36:01;;;;;;;4.10;2.35;;;;;;;;;;5032412;28;20026;-71
2023/05/14 13:38:26;;;;;;;7.40;2.22;;;;;;;;;;5035715;28;20130;-72
2023/05/14 13:40:51;;;;;;;3.40;2.15;;;;;;;;;;5027882;28;20486;-72
2023/05/14 13:43:16;;;;;;;4.32;2.28;;;;;;;;;;5034897;28;20119;-71
2023/05/14 13:45:42;;;;;;;5.63;1.80;;;;;;;;;;5032210;28;20017;-71
2023/05/14 13:48:07;;;;;;;3.47;2.20;;;;;;;;;;5033145;28;20713;-71
2023/05/14 13:50:32;;;;;;;3.27;1.90;;;;;;;;;;5031492;28;20306;-74
2023/05/14 13:52:57;;;;;;;2.87;1.83;;;;;;;;;;5034110;28;20029;-72
2023/05/14 13:55:22;;;;;;;2.27;1.80;;;;;;;;;;5031440;28;20480;-71
2023/05/14 13:57:47;;;;;;;3.63;1.97;;;;;;;;;;5031328;28;20104;-72
2023/05/14 14:00:14;;;;;;;4.10;2.20;;;;;;;;;;5032624;28;20474;-72
2023/05/14 14:02:39;;;;;;;4.05;1.90;;;;;;;;;;5033684;28;20463;-71
2023/05/14 14:05:05;;;;;;;9.25;2.03;;;;;;;;;;5034915;28;20036;-72
2023/05/14 14:07:30;;;;;;;3.65;1.98;;;;;;;;;;5034761;28;20048;-71
2023/05/14 14:09:55;;;;;;;5.53;1.80;;;;;;;;;;5031569;28;21403;-71
2023/05/14 14:12:20;;;;;;;2.70;1.97;;;;;;;;;;5033258;28;20343;-72
2023/05/14 14:14:46;;;;;;;6.47;1.92;;;;;;;;;;5031238;28;20020;-72
2023/05/14 14:17:11;;;;;;;2.42;2.00;;;;;;;;;;5031860;28;20021;-72
2023/05/14 14:19:37;;;;;;;6.23;2.13;;;;;;;;;;5032555;28;20618;-72
2023/05/14 14:22:02;;;;;;;3.67;1.83;;;;;;;;;;5033672;28;20784;-72
2023/05/14 14:24:27;;;;;;;4.60;2.10;;;;;;;;;;5035312;28;20030;-72
2023/05/14 14:26:52;;;;;;;5.63;2.83;;;;;;;;;;5026906;28;20499;-72